Time;durP1;ratioP1;P1;durP2;ratioP2;P2;SDS_P1;SDS_P2;PMS_P1;PMS_P2;Temp;Humidity;BMP_temperature;BMP_pressure;BME280_temperature;BME280_humidity;BME280_pressure;Samples;Min_cycle;Max_cycle;Signal;HPM_P1;HPM_P2
2022/04/23 00:01:14;;;;;;;22.60;13.70;;;10.20;99.90;;;;;;5077583;28;20098;-69
2022/04/23 00:03:40;;;;;;;22.83;14.27;;;10.30;99.90;;;;;;5073156;28;20037;-68
2022/04/23 00:06:07;;;;;;;25.77;14.68;;;10.20;99.90;;;;;;5080628;28;20057;-68
2022/04/23 00:08:32;;;;;;;27.02;14.95;;;10.20;99.90;;;;;;5086338;28;20019;-69
2022/04/23 00:10:59;;;;;;;26.42;14.13;;;10.20;99.90;;;;;;5071201;28;20470;-68
2022/04/23 00:13:25;;;;;;;25.75;14.88;;;10.20;99.90;;;;;;5075354;28;20033;-68
2022/04/23 00:15:51;;;;;;;29.95;15.75;;;10.20;99.90;;;;;;5057256;28;20024;-68
2022/04/23 00:18:18;;;;;;;28.40;14.75;;;10.10;99.90;;;;;;5075922;28;20032;-68
2022/04/23 00:20:46;;;;;;;27.40;15.45;;;10.10;99.90;;;;;;5075004;28;20032;-68
2022/04/23 00:23:12;;;;;;;28.25;15.40;;;10.10;99.90;;;;;;5063339;28;20020;-67
2022/04/23 00:25:39;;;;;;;27.17;15.38;;;10.10;99.90;;;;;;5083573;28;20034;-68
2022/04/23 00:28:05;;;;;;;29.02;15.80;;;10.00;99.90;;;;;;5063279;28;20097;-68
2022/04/23 00:30:31;;;;;;;27.35;16.27;;;10.00;99.90;;;;;;5073785;28;20035;-67
2022/04/23 00:33:00;;;;;;;32.47;15.77;;;10.00;99.90;;;;;;5074827;28;20028;-67
2022/04/23 00:35:26;;;;;;;26.83;15.35;;;10.00;99.90;;;;;;5077559;28;20063;-67
2022/04/23 00:37:52;;;;;;;27.42;15.05;;;10.00;99.90;;;;;;5074713;28;20028;-68
2022/04/23 00:40:18;;;;;;;26.67;15.70;;;9.90;99.90;;;;;;5073978;28;20021;-68
2022/04/23 00:42:45;;;;;;;31.17;15.90;;;9.90;99.90;;;;;;5073106;28;20068;-68
2022/04/23 00:45:11;;;;;;;28.30;16.00;;;9.80;99.90;;;;;;5067678;28;20050;-68
2022/04/23 00:47:38;;;;;;;27.70;14.88;;;9.80;99.90;;;;;;5094854;28;20055;-70
2022/04/23 00:50:04;;;;;;;29.55;15.05;;;9.80;99.90;;;;;;5086401;28;20070;-68
2022/04/23 00:52:32;;;;;;;24.30;14.32;;;9.80;99.90;;;;;;5073514;28;20068;-68
2022/04/23 00:54:59;;;;;;;28.35;14.38;;;9.80;99.90;;;;;;5065967;28;20029;-68
2022/04/23 00:57:25;;;;;;;26.40;14.13;;;9.80;99.90;;;;;;5068929;28;20029;-68
2022/04/23 00:59:52;;;;;;;32.45;16.17;;;9.80;99.90;;;;;;5056369;28;20024;-68
2022/04/23 01:02:18;;;;;;;28.13;15.25;;;9.70;99.90;;;;;;5073902;28;20032;-68
2022/04/23 01:04:44;;;;;;;25.55;14.63;;;9.80;99.90;;;;;;5074411;28;20035;-68
2022/04/23 01:07:13;;;;;;;29.25;15.15;;;9.70;99.90;;;;;;5056037;28;20020;-68
2022/04/23 01:09:39;;;;;;;27.05;15.02;;;9.70;99.90;;;;;;5056009;28;20021;-68
2022/04/23 01:12:05;;;;;;;28.40;14.93;;;9.70;99.90;;;;;;5070524;28;20126;-68
2022/04/23 01:14:31;;;;;;;30.52;14.50;;;9.70;99.90;;;;;;5074262;28;20021;-68
2022/04/23 01:16:57;;;;;;;23.40;14.55;;;9.60;99.90;;;;;;5055653;28;20078;-68
2022/04/23 01:19:23;;;;;;;24.77;14.38;;;9.70;99.90;;;;;;5055654;28;20036;-68
2022/04/23 01:21:48;;;;;;;23.67;14.30;;;9.70;99.90;;;;;;5055577;28;20036;-68
2022/04/23 01:24:15;;;;;;;25.45;13.90;;;9.70;99.90;;;;;;5073614;28;20082;-68
2022/04/23 01:26:41;;;;;;;24.45;13.63;;;9.70;99.90;;;;;;5073746;28;20052;-68
2022/04/23 01:29:07;;;;;;;22.98;13.50;;;9.80;99.90;;;;;;5073607;28;20048;-68
2022/04/23 01:31:32;;;;;;;22.05;13.13;;;9.80;99.90;;;;;;5089103;28;20101;-68
2022/04/23 01:33:59;;;;;;;25.73;13.25;;;9.80;99.90;;;;;;5094153;28;20099;-69
2022/04/23 01:36:25;;;;;;;22.00;13.35;;;9.80;99.90;;;;;;5075034;28;20092;-69
2022/04/23 01:38:50;;;;;;;24.08;13.00;;;9.80;99.90;;;;;;5075525;28;20123;-68
2022/04/23 01:41:16;;;;;;;22.85;13.30;;;9.80;99.90;;;;;;5075364;28;20024;-68
2022/04/23 01:43:42;;;;;;;21.65;12.82;;;9.70;99.90;;;;;;5093476;28;20020;-68
2022/04/23 01:46:08;;;;;;;23.83;13.25;;;9.80;99.90;;;;;;5075614;28;20021;-68
2022/04/23 01:48:33;;;;;;;24.15;13.98;;;9.80;99.90;;;;;;5093427;28;20030;-68
2022/04/23 01:51:00;;;;;;;21.02;12.07;;;9.70;99.90;;;;;;5075580;28;20109;-68
2022/04/23 01:53:27;;;;;;;23.27;13.13;;;9.70;99.90;;;;;;5075106;28;20201;-68
2022/04/23 01:55:54;;;;;;;24.05;12.52;;;9.80;99.90;;;;;;5093434;28;20064;-69
2022/04/23 01:58:21;;;;;;;21.42;12.82;;;9.80;99.90;;;;;;5069272;28;20119;-69
2022/04/23 02:00:47;;;;;;;18.83;11.63;;;9.80;99.90;;;;;;5079865;28;20081;-69
2022/04/23 02:03:12;;;;;;;21.65;12.20;;;9.90;99.90;;;;;;5074969;28;20043;-66
2022/04/23 02:05:38;;;;;;;21.83;12.50;;;9.90;99.90;;;;;;5075965;28;20021;-68
2022/04/23 02:08:04;;;;;;;19.27;11.23;;;10.00;99.90;;;;;;5075237;28;20048;-68
2022/04/23 02:10:30;;;;;;;18.35;11.25;;;10.00;99.90;;;;;;5074972;28;20060;-68
2022/04/23 02:12:56;;;;;;;19.58;12.23;;;10.00;99.90;;;;;;5093260;28;20020;-69
2022/04/23 02:15:22;;;;;;;20.05;12.02;;;10.00;99.90;;;;;;5075347;28;20020;-69
2022/04/23 02:17:49;;;;;;;18.65;11.27;;;10.00;99.90;;;;;;5093047;28;20080;-69
2022/04/23 02:20:16;;;;;;;22.33;12.68;;;10.00;99.90;;;;;;5093240;28;20024;-68
2022/04/23 02:22:42;;;;;;;19.48;11.18;;;10.00;99.90;;;;;;5074983;28;20119;-68
2022/04/23 02:25:09;;;;;;;21.35;11.10;;;10.10;99.90;;;;;;5092969;28;20032;-68
2022/04/23 02:27:45;;;;;;;20.15;12.20;;;10.20;99.90;;;;;;5092931;28;20023;-69
2022/04/23 02:30:13;;;;;;;22.90;11.52;;;10.20;99.90;;;;;;5093211;28;20095;-69
2022/04/23 02:32:40;;;;;;;17.65;10.95;;;10.30;99.90;;;;;;5074718;28;20031;-69
2022/04/23 02:35:06;;;;;;;18.92;10.75;;;10.40;99.90;;;;;;5092857;28;20031;-69
2022/04/23 02:37:34;;;;;;;22.05;11.60;;;10.40;99.90;;;;;;5074651;28;20114;-68
2022/04/23 02:40:07;;;;;;;20.63;11.18;;;10.40;99.90;;;;;;5092907;28;20095;-69
2022/04/23 02:42:39;;;;;;;20.75;11.52;;;10.40;99.90;;;;;;5074964;28;20160;-69
2022/04/23 02:45:05;;;;;;;;;;;10.50;99.90;;;;;;5075100;28;20101;-69
2022/04/23 02:47:41;;;;;;;18.13;10.60;;;10.50;99.90;;;;;;5094535;28;19904;-69
2022/04/23 02:50:09;;;;;;;18.38;11.32;;;10.50;99.90;;;;;;5096939;28;20016;-69
2022/04/23 02:52:35;;;;;;;18.08;10.18;;;10.60;99.90;;;;;;5097002;28;20024;-69
2022/04/23 02:55:01;;;;;;;21.08;11.73;;;10.60;99.90;;;;;;5078564;28;20398;-68
2022/04/23 02:57:26;;;;;;;19.33;10.68;;;10.60;99.90;;;;;;5096853;28;20020;-69
2022/04/23 02:59:52;;;;;;;17.52;10.13;;;10.60;99.90;;;;;;5078729;28;20028;-69
2022/04/23 03:02:17;;;;;;;17.90;10.18;;;10.60;99.90;;;;;;5096566;28;20077;-68
2022/04/23 03:04:43;;;;;;;17.52;9.82;;;10.70;99.90;;;;;;5078665;28;20032;-69
2022/04/23 03:07:10;;;;;;;17.00;10.50;;;10.70;99.90;;;;;;5078671;28;20028;-69
2022/04/23 03:09:37;;;;;;;15.85;9.90;;;10.70;99.90;;;;;;5096429;28;20016;-69
2022/04/23 03:12:03;;;;;;;23.60;11.10;;;10.80;99.90;;;;;;5096441;28;20023;-68
2022/04/23 03:14:29;;;;;;;16.95;9.50;;;10.80;99.90;;;;;;5096285;28;20028;-68
2022/04/23 03:16:54;;;;;;;15.63;9.75;;;10.80;99.90;;;;;;5078286;28;20024;-68
2022/04/23 03:19:20;;;;;;;18.02;9.63;;;10.80;99.90;;;;;;5096506;28;20020;-69
2022/04/23 03:21:45;;;;;;;17.27;9.68;;;10.80;99.90;;;;;;5078220;28;20024;-69
2022/04/23 03:24:11;;;;;;;15.38;9.70;;;10.80;99.90;;;;;;5078261;28;20181;-70
2022/04/23 03:26:37;;;;;;;16.80;9.85;;;10.80;99.90;;;;;;5096077;28;20016;-68
2022/04/23 03:29:03;;;;;;;16.30;9.77;;;10.80;99.90;;;;;;5078003;28;20026;-69
2022/04/23 03:31:29;;;;;;;14.45;8.98;;;10.80;99.90;;;;;;5096463;28;20451;-69
2022/04/23 03:33:54;;;;;;;15.02;9.50;;;10.90;99.90;;;;;;5096274;28;20043;-68
2022/04/23 03:36:20;;;;;;;19.77;9.43;;;10.80;99.90;;;;;;5077710;28;20028;-69
2022/04/23 03:38:46;;;;;;;13.82;8.27;;;10.90;99.90;;;;;;5096460;28;20032;-69
2022/04/23 03:41:12;;;;;;;13.82;8.13;;;10.80;99.90;;;;;;5078394;28;20097;-68
2022/04/23 03:43:38;;;;;;;14.55;8.73;;;10.80;99.90;;;;;;5077572;28;20024;-69
2022/04/23 03:46:03;;;;;;;16.65;9.02;;;10.90;99.90;;;;;;5095869;28;20074;-69
2022/04/23 03:48:29;;;;;;;19.80;10.60;;;10.90;99.90;;;;;;5077489;28;20114;-68
2022/04/23 03:50:54;;;;;;;14.68;8.27;;;10.90;99.90;;;;;;5093187;28;20028;-68
2022/04/23 03:53:20;;;;;;;16.67;9.18;;;10.80;99.90;;;;;;5057281;28;20021;-69
2022/04/23 03:55:46;;;;;;;14.60;8.43;;;10.90;99.90;;;;;;5071234;28;20024;-68
2022/04/23 03:58:12;;;;;;;13.88;9.38;;;10.90;99.90;;;;;;5073497;28;20024;-69
2022/04/23 04:00:38;;;;;;;14.65;8.73;;;10.80;99.90;;;;;;5074122;28;20064;-68
2022/04/23 04:03:03;;;;;;;12.35;8.07;;;10.80;99.90;;;;;;5073828;28;20120;-69
2022/04/23 04:05:31;;;;;;;14.52;8.90;;;10.80;99.90;;;;;;5074481;28;20056;-69
2022/04/23 04:07:56;;;;;;;16.63;8.52;;;10.80;99.90;;;;;;5075041;28;20028;-69
2022/04/23 04:10:23;;;;;;;15.68;9.13;;;10.90;99.90;;;;;;5073718;28;20021;-68
2022/04/23 04:12:50;;;;;;;13.00;8.95;;;10.90;99.90;;;;;;5073794;28;20027;-69
2022/04/23 04:15:17;;;;;;;17.02;9.60;;;10.80;99.90;;;;;;5073790;28;20024;-69
2022/04/23 04:17:44;;;;;;;14.15;9.00;;;10.80;99.90;;;;;;5074002;28;20077;-69
2022/04/23 04:20:13;;;;;;;15.95;9.43;;;10.80;99.90;;;;;;5075128;28;20021;-69
2022/04/23 04:22:39;;;;;;;16.80;9.55;;;10.80;99.90;;;;;;5074677;28;20458;-69
2022/04/23 04:25:05;;;;;;;16.35;9.32;;;10.90;99.90;;;;;;5073588;28;20028;-69
2022/04/23 04:27:33;;;;;;;14.75;8.63;;;10.90;99.90;;;;;;5073476;28;20386;-69
2022/04/23 04:29:59;;;;;;;13.85;8.93;;;10.90;99.90;;;;;;5073567;28;20029;-69
2022/04/23 04:32:24;;;;;;;15.40;9.18;;;10.90;99.90;;;;;;5074045;28;20475;-69
2022/04/23 04:34:50;;;;;;;12.50;8.63;;;10.90;99.90;;;;;;5075078;28;20035;-69
2022/04/23 04:37:16;;;;;;;16.80;10.27;;;11.00;99.90;;;;;;5074416;28;20081;-69
2022/04/23 04:39:42;;;;;;;13.63;8.88;;;11.10;99.90;;;;;;5074328;28;20025;-69
2022/04/23 04:42:09;;;;;;;16.27;10.02;;;11.10;99.90;;;;;;5074223;28;20078;-69
2022/04/23 04:44:37;;;;;;;16.38;10.02;;;11.10;99.90;;;;;;5073743;28;20086;-69
2022/04/23 04:47:04;;;;;;;14.57;9.75;;;11.00;99.90;;;;;;5074211;28;20111;-69
2022/04/23 04:49:30;;;;;;;16.40;9.60;;;11.10;99.90;;;;;;5074902;28;20020;-69
2022/04/23 04:51:56;;;;;;;16.92;9.75;;;11.10;99.90;;;;;;5074317;28;20039;-69
2022/04/23 04:54:23;;;;;;;16.92;9.65;;;11.10;99.90;;;;;;5073791;28;20021;-69
2022/04/23 04:56:49;;;;;;;18.20;10.80;;;11.00;99.90;;;;;;5073791;28;20025;-69
2022/04/23 04:59:15;;;;;;;17.95;9.93;;;11.10;99.90;;;;;;5073635;28;20029;-69
2022/04/23 05:01:41;;;;;;;17.10;9.77;;;11.10;99.90;;;;;;5074543;28;20031;-69
2022/04/23 05:04:07;;;;;;;18.55;10.48;;;11.10;99.90;;;;;;5073334;28;20052;-69
2022/04/23 05:06:32;;;;;;;17.80;9.90;;;11.20;99.90;;;;;;5073159;28;20020;-69
2022/04/23 05:08:58;;;;;;;17.95;9.75;;;11.20;99.90;;;;;;5073200;28;20017;-69
2022/04/23 05:11:24;;;;;;;19.42;10.48;;;11.20;99.90;;;;;;5074141;28;20031;-69
2022/04/23 05:13:51;;;;;;;15.90;10.40;;;11.20;99.90;;;;;;5073340;28;20479;-69
2022/04/23 05:16:17;;;;;;;18.98;10.77;;;11.30;99.90;;;;;;5072917;28;20021;-69
2022/04/23 05:18:42;;;;;;;17.80;9.73;;;11.40;99.90;;;;;;5072957;28;20022;-69
2022/04/23 05:21:08;;;;;;;18.75;10.50;;;11.50;99.90;;;;;;5073382;28;20035;-69
2022/04/23 05:23:34;;;;;;;16.65;9.63;;;11.50;99.90;;;;;;5074099;28;20043;-69
2022/04/23 05:26:01;;;;;;;17.27;9.65;;;11.60;99.90;;;;;;5073146;28;20387;-68
2022/04/23 05:28:27;;;;;;;17.08;9.48;;;11.80;99.90;;;;;;5073986;28;20045;-68
2022/04/23 05:30:53;;;;;;;17.55;10.98;;;11.90;99.90;;;;;;5073019;28;20102;-69
2022/04/23 05:33:18;;;;;;;21.05;10.57;;;11.90;99.90;;;;;;5056131;28;20036;-69
2022/04/23 05:35:44;;;;;;;18.48;10.88;;;11.90;99.90;;;;;;5072724;28;20024;-69
2022/04/23 05:38:11;;;;;;;17.65;10.60;;;11.90;99.90;;;;;;5073949;28;20104;-69
2022/04/23 05:40:36;;;;;;;17.13;10.45;;;12.00;99.90;;;;;;5072428;28;20025;-69
2022/04/23 05:43:02;;;;;;;18.02;10.27;;;12.40;99.90;;;;;;5072596;28;20032;-69
2022/04/23 05:45:29;;;;;;;16.48;10.35;;;12.80;99.90;;;;;;5072526;28;20051;-69
2022/04/23 05:47:55;;;;;;;17.95;9.98;;;13.40;99.90;;;;;;5072546;28;20371;-69
2022/04/23 05:50:22;;;;;;;16.95;9.43;;;14.00;99.90;;;;;;5074217;28;20424;-67
2022/04/23 05:52:48;;;;;;;16.33;10.40;;;14.40;99.90;;;;;;5072714;28;20048;-67
2022/04/23 05:55:13;;;;;;;14.38;9.27;;;14.80;99.90;;;;;;5082096;28;20062;-67
2022/04/23 05:57:39;;;;;;;14.15;9.07;;;15.20;99.90;;;;;;5093819;28;20032;-67
2022/04/23 06:00:07;;;;;;;20.30;11.00;;;15.70;99.90;;;;;;5094610;28;20416;-67
2022/04/23 06:02:33;;;;;;;16.27;10.32;;;16.10;99.90;;;;;;5093581;28;20031;-67
2022/04/23 06:04:59;;;;;;;13.88;9.60;;;16.40;99.90;;;;;;5076671;28;20036;-67
2022/04/23 06:07:24;;;;;;;14.63;9.85;;;16.70;99.90;;;;;;5075639;28;20114;-67
2022/04/23 06:09:50;;;;;;;15.82;10.27;;;16.90;99.90;;;;;;5075611;28;20027;-67
2022/04/23 06:12:16;;;;;;;14.82;10.13;;;16.90;99.90;;;;;;5093574;28;20024;-67
2022/04/23 06:14:41;;;;;;;17.00;11.02;;;17.40;99.90;;;;;;5075979;28;20024;-67
2022/04/23 06:17:12;;;;;;;17.80;10.10;;;17.40;99.90;;;;;;5075656;28;20108;-69
2022/04/23 06:19:42;;;;;;;14.57;10.30;;;17.70;99.90;;;;;;5075778;28;20232;-67
2022/04/23 06:22:08;;;;;;;15.60;9.93;;;17.70;99.90;;;;;;5074817;28;20278;-67
2022/04/23 06:24:34;;;;;;;15.05;9.13;;;17.90;99.90;;;;;;5075712;28;20028;-69
2022/04/23 06:27:01;;;;;;;16.27;9.50;;;17.80;99.90;;;;;;5093794;28;20024;-67
2022/04/23 06:29:26;;;;;;;14.05;9.18;;;18.00;99.90;;;;;;5093349;28;20043;-67
2022/04/23 06:31:52;;;;;;;13.18;8.90;;;18.40;99.90;;;;;;5076171;28;20462;-69
2022/04/23 06:34:19;;;;;;;12.98;8.63;;;18.40;99.90;;;;;;5093476;28;20020;-68
2022/04/23 06:36:44;;;;;;;11.90;7.85;;;18.20;99.90;;;;;;5075318;28;20371;-69
2022/04/23 06:39:10;;;;;;;13.50;8.45;;;18.60;99.90;;;;;;5075595;28;20470;-69
2022/04/23 06:41:35;;;;;;;12.27;7.78;;;18.80;99.90;;;;;;5075167;28;20052;-69
2022/04/23 06:44:01;;;;;;;11.52;8.77;;;19.20;99.90;;;;;;5075146;28;20126;-69
2022/04/23 06:46:27;;;;;;;10.70;7.97;;;19.60;99.90;;;;;;5093676;28;20076;-69
2022/04/23 06:48:53;;;;;;;10.77;8.45;;;19.90;99.90;;;;;;5075163;28;20124;-69
2022/04/23 06:51:19;;;;;;;11.90;8.73;;;20.10;99.90;;;;;;5075404;28;20052;-69
2022/04/23 06:53:44;;;;;;;12.30;8.48;;;20.40;99.90;;;;;;5093810;28;20067;-69
2022/04/23 06:56:10;;;;;;;12.38;8.80;;;20.60;99.90;;;;;;5093206;28;20029;-69
2022/04/23 06:58:36;;;;;;;12.23;9.30;;;20.30;99.90;;;;;;5075118;28;20039;-69
2022/04/23 07:01:03;;;;;;;13.65;9.60;;;20.80;99.90;;;;;;5074144;28;20039;-69
2022/04/23 07:03:29;;;;;;;15.20;9.68;;;20.90;99.90;;;;;;5075055;28;20024;-70
2022/04/23 07:05:55;;;;;;;12.52;9.52;;;20.60;99.00;;;;;;5071638;28;20031;-69
2022/04/23 07:08:20;;;;;;;16.00;9.20;;;19.30;99.90;;;;;;5054923;28;20113;-67
2022/04/23 07:10:46;;;;;;;10.75;8.32;;;18.50;99.90;;;;;;5055728;28;20027;-67
2022/04/23 07:13:12;;;;;;;13.93;9.48;;;17.80;99.90;;;;;;5056635;28;20031;-67
2022/04/23 07:15:39;;;;;;;13.07;9.70;;;17.30;99.90;;;;;;5093059;28;20107;-69
2022/04/23 07:18:06;;;;;;;14.95;10.02;;;16.90;99.90;;;;;;5069879;28;20034;-67
2022/04/23 07:20:32;;;;;;;13.07;9.68;;;16.50;99.90;;;;;;5078243;28;20028;-67
2022/04/23 07:25:42;;;;;;;18.75;11.00;;;15.90;99.90;;;;;;5073082;28;20086;-67
2022/04/23 07:28:07;;;;;;;14.35;9.90;;;15.70;99.90;;;;;;5072694;28;20028;-67
2022/04/23 07:30:35;;;;;;;15.57;10.32;;;15.50;99.90;;;;;;5071380;28;20394;-66
2022/04/23 07:33:01;;;;;;;15.85;10.77;;;15.50;99.90;;;;;;5073058;28;20016;-66
2022/04/23 07:38:20;;;;;;;18.17;10.57;;;15.50;99.90;;;;;;5097175;28;20088;-67
2022/04/23 07:40:48;;;;;;;16.42;10.20;;;15.60;99.90;;;;;;5096456;28;20055;-67
2022/04/23 07:43:14;;;;;;;17.75;10.27;;;16.00;99.90;;;;;;5078266;28;20020;-69
2022/04/23 07:45:43;;;;;;;18.73;11.57;;;16.50;99.90;;;;;;5096700;28;20020;-67
2022/04/23 07:48:10;;;;;;;18.25;10.93;;;16.70;99.90;;;;;;5078056;28;20016;-67
2022/04/23 07:50:36;;;;;;;19.02;10.93;;;17.30;99.90;;;;;;5096201;28;20095;-69
2022/04/23 07:53:02;;;;;;;17.38;12.00;;;18.20;99.90;;;;;;5073700;28;20040;-67
2022/04/23 07:55:36;;;;;;;23.80;12.85;;;18.40;99.90;;;;;;5067637;28;20024;-67
2022/04/23 07:58:06;;;;;;;20.05;12.32;;;18.10;99.90;;;;;;5075440;28;20055;-67
2022/04/23 08:00:34;;;;;;;21.83;12.02;;;18.40;99.90;;;;;;5058046;28;20028;-67
2022/04/23 08:03:02;;;;;;;17.30;11.55;;;19.30;99.90;;;;;;5074301;28;20044;-67
2022/04/23 08:05:29;;;;;;;19.40;10.68;;;19.80;99.90;;;;;;5075201;28;20054;-69
2022/04/23 08:07:54;;;;;;;19.70;12.52;;;20.50;99.90;;;;;;5076245;28;20058;-69
2022/04/23 08:10:20;;;;;;;19.58;12.15;;;21.00;99.90;;;;;;5075387;28;20031;-69
2022/04/23 08:12:46;;;;;;;16.90;10.98;;;21.60;99.80;;;;;;5075542;28;20394;-67
2022/04/23 08:15:12;;;;;;;16.80;11.02;;;21.60;98.80;;;;;;5058095;28;20028;-67
2022/04/23 08:17:38;;;;;;;20.35;11.52;;;21.70;98.10;;;;;;5086737;28;20111;-68
2022/04/23 08:20:04;;;;;;;18.25;11.88;;;21.70;97.10;;;;;;5095644;28;20024;-67
2022/04/23 08:22:30;;;;;;;15.73;11.70;;;21.10;97.50;;;;;;5077292;28;20114;-67
2022/04/23 08:24:56;;;;;;;16.20;12.35;;;20.00;98.50;;;;;;5081028;28;20107;-67
2022/04/23 08:27:22;;;;;;;14.93;11.13;;;19.20;99.90;;;;;;5073356;28;20024;-68
2022/04/23 08:32:31;;;;;;;22.63;12.70;;;18.70;99.90;;;;;;5095619;28;20109;-67
2022/04/23 08:34:58;;;;;;;20.88;11.55;;;18.20;99.90;;;;;;5077227;28;20044;-67
2022/04/23 08:37:24;;;;;;;16.08;10.48;;;18.00;99.90;;;;;;5078246;28;20028;-67
2022/04/23 08:39:50;;;;;;;17.98;11.90;;;17.90;99.90;;;;;;5077422;28;20032;-68
2022/04/23 08:42:17;;;;;;;19.67;11.48;;;17.80;99.90;;;;;;5095046;28;20031;-68
2022/04/23 08:44:45;;;;;;;19.50;10.90;;;17.30;99.90;;;;;;5072476;28;20020;-68
2022/04/23 08:47:12;;;;;;;19.58;10.73;;;17.10;99.90;;;;;;5057855;28;20034;-68
2022/04/23 08:49:42;;;;;;;20.23;10.82;;;16.60;99.90;;;;;;5084326;28;20103;-68
2022/04/23 08:52:18;;;;;;;20.83;11.98;;;16.30;99.90;;;;;;5075006;28;20029;-68
2022/04/23 08:54:44;;;;;;;18.02;10.85;;;16.00;99.90;;;;;;5069641;28;20032;-68
2022/04/23 08:57:10;;;;;;;18.55;10.55;;;15.80;99.90;;;;;;5074930;28;20032;-68
2022/04/23 08:59:36;;;;;;;17.95;10.43;;;15.80;99.90;;;;;;5080157;28;20036;-68
2022/04/23 09:02:07;;;;;;;14.40;8.88;;;15.80;99.90;;;;;;5077885;28;20055;-67
2022/04/23 09:04:36;;;;;;;15.35;8.63;;;16.30;99.90;;;;;;5093198;28;20032;-68
2022/04/23 09:07:01;;;;;;;18.67;9.95;;;16.80;99.90;;;;;;5064660;28;20028;-68
2022/04/23 09:09:27;;;;;;;15.18;8.57;;;16.80;99.90;;;;;;5075244;28;20085;-68
2022/04/23 09:11:57;;;;;;;18.80;11.30;;;16.80;99.90;;;;;;5076370;28;20020;-68
2022/04/23 09:14:32;;;;;;;18.63;9.25;;;16.70;99.90;;;;;;5057287;28;20025;-68
2022/04/23 09:25:35;;;;;;;12.57;8.10;;;16.30;99.90;;;;;;5083637;28;20154;-68
2022/04/23 09:28:20;;;;;;;14.27;9.45;;;17.90;99.90;;;;;;5094424;28;20041;-67
2022/04/23 09:30:50;;;;;;;14.38;9.20;;;18.10;99.90;;;;;;5094196;28;20025;-67
2022/04/23 09:33:17;;;;;;;13.95;9.18;;;17.50;99.90;;;;;;5092573;28;20028;-67
2022/04/23 09:35:52;;;;;;;16.08;9.00;;;17.30;99.90;;;;;;5090883;28;20024;-67
2022/04/23 09:38:18;;;;;;;14.65;8.52;;;17.00;99.90;;;;;;5076243;28;20051;-67
2022/04/23 09:40:51;;;;;;;19.05;8.85;;;16.90;99.90;;;;;;5075886;28;20386;-67
2022/04/23 09:43:30;;;;;;;16.00;8.45;;;16.70;99.90;;;;;;5075922;28;20028;-67
2022/04/23 09:46:03;;;;;;;15.30;8.98;;;16.40;99.90;;;;;;5094095;28;20020;-67
2022/04/23 09:48:29;;;;;;;15.25;8.80;;;16.20;99.90;;;;;;5093942;28;20023;-67
2022/04/23 09:50:56;;;;;;;16.52;8.70;;;16.10;99.90;;;;;;5093860;28;20039;-68
2022/04/23 09:53:27;;;;;;;16.02;8.77;;;16.00;99.90;;;;;;5075745;28;20035;-67
2022/04/23 09:55:58;;;;;;;15.50;8.18;;;15.90;99.90;;;;;;5075280;28;20077;-67
2022/04/23 09:58:23;;;;;;;13.57;8.10;;;15.80;99.90;;;;;;5070703;28;20029;-67
2022/04/23 10:00:49;;;;;;;16.25;7.85;;;15.80;99.90;;;;;;5065628;28;20040;-67
2022/04/23 10:03:15;;;;;;;16.23;8.98;;;15.80;99.90;;;;;;5058965;28;20035;-67
2022/04/23 10:05:49;;;;;;;15.88;8.82;;;15.70;99.90;;;;;;5079610;28;20020;-67
2022/04/23 10:08:23;;;;;;;13.95;8.02;;;15.70;99.90;;;;;;5093739;28;20027;-67
2022/04/23 10:10:55;;;;;;;16.50;8.05;;;15.70;99.90;;;;;;5074481;28;20051;-67
2022/04/23 10:13:23;;;;;;;17.63;9.20;;;15.70;99.90;;;;;;5063918;28;20024;-67
2022/04/23 10:15:51;;;;;;;17.00;8.40;;;15.60;99.90;;;;;;5087070;28;20111;-67
2022/04/23 10:18:17;;;;;;;15.43;8.68;;;15.50;99.90;;;;;;5075511;28;20020;-68
2022/04/23 10:20:57;;;;;;;14.45;8.18;;;15.40;99.90;;;;;;5092587;28;20024;-67
2022/04/23 10:23:30;;;;;;;18.98;8.80;;;15.50;99.90;;;;;;5061963;28;20027;-67
2022/04/23 10:26:26;;;;;;;16.17;8.98;;;15.70;99.90;;;;;;5060225;28;20016;-67
2022/04/23 10:28:52;;;;;;;17.50;9.43;;;15.90;99.90;;;;;;5076178;28;20020;-68
2022/04/23 10:31:19;;;;;;;16.67;9.68;;;16.10;99.90;;;;;;5093543;28;20645;-68
2022/04/23 10:33:52;;;;;;;16.73;9.40;;;16.20;99.90;;;;;;5073794;28;20064;-68
2022/04/23 10:36:20;;;;;;;18.00;10.30;;;16.30;99.90;;;;;;5055837;28;20028;-67
2022/04/23 10:38:51;;;;;;;20.38;10.23;;;16.10;99.90;;;;;;5075017;28;20034;-68
2022/04/23 10:41:18;;;;;;;;;;;15.90;99.90;;;;;;5092983;28;20020;-67
2022/04/23 10:43:47;;;;;;;25.08;14.40;;;15.80;99.90;;;;;;5056068;28;19999;-68
2022/04/23 10:46:38;;;;;;;30.02;15.63;;;15.60;99.90;;;;;;5066736;28;20024;-68
2022/04/23 10:49:21;;;;;;;28.27;15.15;;;15.50;99.90;;;;;;5075140;28;20020;-68
2022/04/23 10:51:48;;;;;;;28.27;15.43;;;15.20;99.90;;;;;;5093135;28;20059;-68
2022/04/23 10:54:41;;;;;;;30.60;16.10;;;15.10;99.90;;;;;;5071729;28;20031;-63
2022/04/23 10:57:14;;;;;;;30.77;17.38;;;15.10;99.90;;;;;;5064836;28;20028;-63
2022/04/23 10:59:56;;;;;;;31.23;16.83;;;15.20;99.90;;;;;;5055015;28;20574;-63
2022/04/23 11:02:22;;;;;;;32.60;17.35;;;15.30;99.90;;;;;;5063588;28;20028;-62
2022/04/23 11:14:28;;;;;;;32.63;18.70;;;15.10;99.90;;;;;;5088832;28;20039;-62
2022/04/23 11:16:55;;;;;;;36.05;18.85;;;15.30;99.90;;;;;;5062305;28;20115;-60
2022/04/23 11:19:20;;;;;;;36.38;19.40;;;15.30;99.90;;;;;;5082713;28;20020;-60
2022/04/23 11:21:47;;;;;;;35.88;19.25;;;15.20;99.90;;;;;;5078774;28;20050;-60
2022/04/23 11:24:14;;;;;;;34.70;18.95;;;15.00;99.90;;;;;;5082111;28;20025;-60
2022/04/23 11:26:47;;;;;;;32.83;17.77;;;15.10;99.90;;;;;;5070033;28;20543;-60
2022/04/23 11:29:14;;;;;;;33.28;17.98;;;15.20;99.90;;;;;;5078436;28;20016;-60
2022/04/23 11:31:41;;;;;;;31.40;18.08;;;15.10;99.90;;;;;;5078404;28;20028;-61
2022/04/23 11:34:07;;;;;;;32.00;18.42;;;15.10;99.90;;;;;;5078503;28;20379;-61
2022/04/23 11:36:36;;;;;;;31.60;17.75;;;15.10;99.90;;;;;;5096347;28;20020;-62
2022/04/23 11:39:30;;;;;;;31.33;18.10;;;15.10;99.90;;;;;;5078664;28;20031;-62
2022/04/23 11:41:56;;;;;;;33.25;18.60;;;15.30;99.90;;;;;;5096315;28;20027;-62
2022/04/23 11:47:11;;;;;;;29.92;17.77;;;15.50;99.90;;;;;;5096607;28;20054;-63
2022/04/23 11:49:37;;;;;;;33.72;18.20;;;15.40;99.90;;;;;;5077727;28;20024;-63
2022/04/23 11:52:07;;;;;;;34.45;18.92;;;15.40;99.90;;;;;;5078276;28;20024;-62
2022/04/23 11:54:43;;;;;;;37.53;18.05;;;15.30;99.90;;;;;;5078146;28;20020;-62
2022/04/23 11:57:19;;;;;;;33.88;19.33;;;15.30;99.90;;;;;;5078050;28;20112;-60
2022/04/23 11:59:50;;;;;;;32.03;18.33;;;15.50;99.90;;;;;;5080909;28;20491;-61
2022/04/23 12:02:25;;;;;;;37.92;17.70;;;15.50;99.90;;;;;;5070261;28;20021;-61
2022/04/23 12:04:53;;;;;;;34.22;17.95;;;15.40;99.90;;;;;;5096280;28;20047;-62
2022/04/23 12:07:20;;;;;;;32.67;17.73;;;15.20;99.90;;;;;;5094228;28;20055;-61
2022/04/23 12:09:50;;;;;;;32.38;18.80;;;15.20;99.90;;;;;;5075519;28;20020;-60
2022/04/23 12:12:27;;;;;;;31.75;17.70;;;15.10;99.90;;;;;;5057524;28;20021;-59
2022/04/23 12:14:55;;;;;;;30.77;16.88;;;15.10;99.90;;;;;;5076146;28;20056;-62
2022/04/23 12:17:26;;;;;;;34.20;19.33;;;15.20;99.90;;;;;;5057794;28;20055;-56
2022/04/23 12:19:54;;;;;;;35.65;18.02;;;15.30;99.90;;;;;;5056801;28;20028;-62
2022/04/23 12:22:31;;;;;;;33.22;17.00;;;15.20;99.90;;;;;;5075240;28;20052;-62
2022/04/23 12:25:18;;;;;;;33.88;17.02;;;15.20;99.90;;;;;;5075301;28;20024;-61
2022/04/23 12:27:58;;;;;;;30.58;17.10;;;15.20;99.90;;;;;;5057294;28;20025;-61
2022/04/23 12:42:17;;;;;;;30.05;16.17;;;15.50;99.90;;;;;;5075371;28;20040;-62
2022/04/23 12:44:46;;;;;;;32.80;17.40;;;15.70;99.90;;;;;;5074705;28;20036;-62
2022/04/23 12:47:26;;;;;;;29.13;17.02;;;15.70;99.90;;;;;;5057000;28;20427;-62
2022/04/23 12:49:57;;;;;;;30.85;16.50;;;15.60;99.90;;;;;;5075256;28;20054;-62
2022/04/23 12:52:28;;;;;;;29.17;15.55;;;15.70;99.90;;;;;;5074769;28;20021;-62
2022/04/23 12:55:12;;;;;;;28.37;15.50;;;15.70;99.90;;;;;;5056937;28;20032;-62
2022/04/23 12:57:49;;;;;;;26.75;14.40;;;15.80;99.90;;;;;;5056736;28;20259;-62
2022/04/23 13:00:16;;;;;;;24.23;15.07;;;15.80;99.90;;;;;;5056910;28;20036;-62
2022/04/23 13:02:45;;;;;;;26.02;15.27;;;15.90;99.90;;;;;;5074507;28;20085;-62
2022/04/23 13:05:11;;;;;;;28.90;15.43;;;15.80;99.90;;;;;;5075212;28;20028;-61
2022/04/23 13:10:22;;;;;;;25.58;14.25;;;15.60;99.90;;;;;;5074973;28;20110;-62
2022/04/23 13:12:48;;;;;;;25.35;14.57;;;15.50;99.90;;;;;;5074437;28;20017;-61
2022/04/23 13:15:17;;;;;;;22.13;13.45;;;15.50;99.90;;;;;;5074458;28;20403;-62
2022/04/23 13:17:45;;;;;;;22.98;13.95;;;15.50;99.90;;;;;;5056486;28;20024;-61
2022/04/23 13:20:11;;;;;;;26.25;14.88;;;15.50;99.90;;;;;;5074267;28;20020;-62